sensor_id;sensor_type;location;lat;lon;timestamp;P1;durP1;ratioP1;P2;durP2;ratioP2
43160;SDS011;40968;52.342;5.528;2022-11-20T00:02:15;32.45;;;11.00;;
43160;SDS011;40968;52.342;5.528;2022-11-20T00:04:42;37.80;;;13.43;;
43160;SDS011;40968;52.342;5.528;2022-11-20T00:07:10;35.55;;;10.32;;
43160;SDS011;40968;52.342;5.528;2022-11-20T00:09:36;41.22;;;14.27;;
43160;SDS011;40968;52.342;5.528;2022-11-20T00:12:03;23.35;;;10.30;;
43160;SDS011;40968;52.342;5.528;2022-11-20T00:14:30;38.55;;;12.60;;
43160;SDS011;40968;52.342;5.528;2022-11-20T00:16:57;31.77;;;12.05;;
43160;SDS011;40968;52.342;5.528;2022-11-20T00:19:24;34.92;;;13.75;;
43160;SDS011;40968;52.342;5.528;2022-11-20T00:21:50;37.50;;;13.65;;
43160;SDS011;40968;52.342;5.528;2022-11-20T00:24:20;40.92;;;13.57;;
43160;SDS011;40968;52.342;5.528;2022-11-20T00:26:46;35.00;;;12.30;;
43160;SDS011;40968;52.342;5.528;2022-11-20T00:29:13;43.58;;;14.07;;
43160;SDS011;40968;52.342;5.528;2022-11-20T00:31:39;46.75;;;14.38;;
43160;SDS011;40968;52.342;5.528;2022-11-20T00:34:06;43.40;;;14.73;;
43160;SDS011;40968;52.342;5.528;2022-11-20T00:36:33;38.20;;;12.90;;
43160;SDS011;40968;52.342;5.528;2022-11-20T00:39:00;30.63;;;11.93;;
43160;SDS011;40968;52.342;5.528;2022-11-20T00:41:28;39.78;;;13.63;;
43160;SDS011;40968;52.342;5.528;2022-11-20T00:43:56;31.95;;;12.80;;
43160;SDS011;40968;52.342;5.528;2022-11-20T00:46:23;35.17;;;13.07;;
43160;SDS011;40968;52.342;5.528;2022-11-20T00:48:51;31.35;;;14.05;;
43160;SDS011;40968;52.342;5.528;2022-11-20T00:51:18;40.58;;;13.00;;
43160;SDS011;40968;52.342;5.528;2022-11-20T00:53:46;36.63;;;12.77;;
43160;SDS011;40968;52.342;5.528;2022-11-20T00:56:14;33.95;;;12.25;;
43160;SDS011;40968;52.342;5.528;2022-11-20T00:58:44;39.17;;;13.85;;
43160;SDS011;40968;52.342;5.528;2022-11-20T01:01:12;57.03;;;14.07;;
43160;SDS011;40968;52.342;5.528;2022-11-20T01:03:41;35.33;;;12.27;;
43160;SDS011;40968;52.342;5.528;2022-11-20T01:06:09;35.90;;;12.13;;
43160;SDS011;40968;52.342;5.528;2022-11-20T01:08:37;32.53;;;12.88;;
43160;SDS011;40968;52.342;5.528;2022-11-20T01:11:05;31.45;;;12.88;;
43160;SDS011;40968;52.342;5.528;2022-11-20T01:13:34;30.42;;;12.00;;
43160;SDS011;40968;52.342;5.528;2022-11-20T01:16:06;31.45;;;12.18;;
43160;SDS011;40968;52.342;5.528;2022-11-20T01:18:34;31.35;;;12.38;;
43160;SDS011;40968;52.342;5.528;2022-11-20T01:21:02;35.17;;;12.40;;
43160;SDS011;40968;52.342;5.528;2022-11-20T01:23:30;33.05;;;12.15;;
43160;SDS011;40968;52.342;5.528;2022-11-20T01:25:59;27.42;;;11.88;;
43160;SDS011;40968;52.342;5.528;2022-11-20T01:28:27;30.10;;;12.13;;
43160;SDS011;40968;52.342;5.528;2022-11-20T01:30:54;36.15;;;12.70;;
43160;SDS011;40968;52.342;5.528;2022-11-20T01:33:23;33.95;;;12.55;;
43160;SDS011;40968;52.342;5.528;2022-11-20T01:35:50;31.48;;;12.13;;
43160;SDS011;40968;52.342;5.528;2022-11-20T01:38:17;36.03;;;12.02;;
43160;SDS011;40968;52.342;5.528;2022-11-20T01:40:45;37.25;;;12.63;;
43160;SDS011;40968;52.342;5.528;2022-11-20T01:43:12;30.52;;;10.82;;
43160;SDS011;40968;52.342;5.528;2022-11-20T01:48:44;30.27;;;12.82;;
43160;SDS011;40968;52.342;5.528;2022-11-20T01:51:18;38.95;;;12.88;;
43160;SDS011;40968;52.342;5.528;2022-11-20T01:53:50;35.65;;;13.07;;
43160;SDS011;40968;52.342;5.528;2022-11-20T01:56:19;39.35;;;12.45;;
43160;SDS011;40968;52.342;5.528;2022-11-20T01:58:47;42.78;;;13.25;;
43160;SDS011;40968;52.342;5.528;2022-11-20T02:01:18;42.33;;;12.80;;
43160;SDS011;40968;52.342;5.528;2022-11-20T02:03:46;35.45;;;11.88;;
43160;SDS011;40968;52.342;5.528;2022-11-20T02:06:15;32.47;;;11.57;;
43160;SDS011;40968;52.342;5.528;2022-11-20T02:08:45;30.85;;;12.15;;
43160;SDS011;40968;52.342;5.528;2022-11-20T02:11:12;40.20;;;13.95;;
43160;SDS011;40968;52.342;5.528;2022-11-20T02:13:38;36.95;;;11.55;;
43160;SDS011;40968;52.342;5.528;2022-11-20T02:16:15;34.67;;;11.95;;
43160;SDS011;40968;52.342;5.528;2022-11-20T02:18:46;28.55;;;9.85;;
43160;SDS011;40968;52.342;5.528;2022-11-20T02:21:30;29.08;;;11.52;;
43160;SDS011;40968;52.342;5.528;2022-11-20T02:24:03;40.13;;;12.23;;
43160;SDS011;40968;52.342;5.528;2022-11-20T02:29:01;31.48;;;12.68;;
43160;SDS011;40968;52.342;5.528;2022-11-20T02:31:28;33.58;;;10.88;;
43160;SDS011;40968;52.342;5.528;2022-11-20T02:33:55;34.45;;;11.55;;
43160;SDS011;40968;52.342;5.528;2022-11-20T02:36:23;30.00;;;10.30;;
43160;SDS011;40968;52.342;5.528;2022-11-20T02:38:52;32.53;;;11.38;;
43160;SDS011;40968;52.342;5.528;2022-11-20T02:41:20;27.92;;;10.18;;
43160;SDS011;40968;52.342;5.528;2022-11-20T02:43:47;34.55;;;10.80;;
43160;SDS011;40968;52.342;5.528;2022-11-20T02:46:13;35.63;;;11.13;;
43160;SDS011;40968;52.342;5.528;2022-11-20T02:48:40;28.17;;;10.48;;
43160;SDS011;40968;52.342;5.528;2022-11-20T02:51:07;28.83;;;9.95;;
43160;SDS011;40968;52.342;5.528;2022-11-20T02:53:33;31.92;;;10.50;;
43160;SDS011;40968;52.342;5.528;2022-11-20T02:56:00;34.00;;;11.38;;
43160;SDS011;40968;52.342;5.528;2022-11-20T02:58:28;26.50;;;10.15;;
43160;SDS011;40968;52.342;5.528;2022-11-20T03:00:54;31.33;;;10.95;;
43160;SDS011;40968;52.342;5.528;2022-11-20T03:03:21;30.80;;;11.15;;
43160;SDS011;40968;52.342;5.528;2022-11-20T03:05:48;28.27;;;10.15;;
43160;SDS011;40968;52.342;5.528;2022-11-20T03:08:14;32.45;;;11.40;;
43160;SDS011;40968;52.342;5.528;2022-11-20T03:10:41;29.77;;;11.30;;
43160;SDS011;40968;52.342;5.528;2022-11-20T03:13:07;29.13;;;10.02;;
43160;SDS011;40968;52.342;5.528;2022-11-20T03:15:36;25.63;;;9.60;;
43160;SDS011;40968;52.342;5.528;2022-11-20T03:18:03;25.73;;;9.80;;
43160;SDS011;40968;52.342;5.528;2022-11-20T03:20:31;33.33;;;10.95;;
43160;SDS011;40968;52.342;5.528;2022-11-20T03:22:58;31.50;;;11.43;;
43160;SDS011;40968;52.342;5.528;2022-11-20T03:25:25;34.78;;;11.32;;
43160;SDS011;40968;52.342;5.528;2022-11-20T03:27:52;28.98;;;10.30;;
43160;SDS011;40968;52.342;5.528;2022-11-20T03:30:18;24.40;;;9.32;;
43160;SDS011;40968;52.342;5.528;2022-11-20T03:32:46;33.67;;;10.77;;
43160;SDS011;40968;52.342;5.528;2022-11-20T03:35:13;33.95;;;10.65;;
43160;SDS011;40968;52.342;5.528;2022-11-20T03:37:40;26.60;;;11.35;;
43160;SDS011;40968;52.342;5.528;2022-11-20T03:40:07;35.28;;;12.48;;
43160;SDS011;40968;52.342;5.528;2022-11-20T03:42:34;37.70;;;11.38;;
43160;SDS011;40968;52.342;5.528;2022-11-20T03:45:13;34.05;;;11.95;;
43160;SDS011;40968;52.342;5.528;2022-11-20T03:47:40;27.50;;;10.55;;
43160;SDS011;40968;52.342;5.528;2022-11-20T03:50:10;28.50;;;9.90;;
43160;SDS011;40968;52.342;5.528;2022-11-20T03:55:05;26.45;;;9.68;;
43160;SDS011;40968;52.342;5.528;2022-11-20T03:57:32;35.28;;;11.15;;
43160;SDS011;40968;52.342;5.528;2022-11-20T03:59:59;26.60;;;11.15;;
43160;SDS011;40968;52.342;5.528;2022-11-20T04:02:25;26.42;;;10.15;;
43160;SDS011;40968;52.342;5.528;2022-11-20T04:04:52;34.38;;;10.52;;
43160;SDS011;40968;52.342;5.528;2022-11-20T04:07:20;31.02;;;11.00;;
43160;SDS011;40968;52.342;5.528;2022-11-20T04:09:46;22.38;;;8.63;;
43160;SDS011;40968;52.342;5.528;2022-11-20T04:12:13;27.67;;;9.90;;
43160;SDS011;40968;52.342;5.528;2022-11-20T04:14:40;23.92;;;9.40;;
43160;SDS011;40968;52.342;5.528;2022-11-20T04:17:07;30.88;;;9.38;;
43160;SDS011;40968;52.342;5.528;2022-11-20T04:19:33;27.42;;;9.45;;
43160;SDS011;40968;52.342;5.528;2022-11-20T04:22:00;27.08;;;9.15;;
43160;SDS011;40968;52.342;5.528;2022-11-20T04:24:28;27.25;;;9.65;;
43160;SDS011;40968;52.342;5.528;2022-11-20T04:26:55;25.55;;;10.13;;
43160;SDS011;40968;52.342;5.528;2022-11-20T04:29:21;27.48;;;9.35;;
43160;SDS011;40968;52.342;5.528;2022-11-20T04:31:48;27.00;;;10.38;;
43160;SDS011;40968;52.342;5.528;2022-11-20T04:34:15;28.27;;;10.23;;
43160;SDS011;40968;52.342;5.528;2022-11-20T04:36:41;24.70;;;8.23;;
43160;SDS011;40968;52.342;5.528;2022-11-20T04:39:11;29.45;;;9.60;;
43160;SDS011;40968;52.342;5.528;2022-11-20T04:44:07;22.70;;;8.82;;
43160;SDS011;40968;52.342;5.528;2022-11-20T04:46:34;25.85;;;9.20;;
43160;SDS011;40968;52.342;5.528;2022-11-20T04:49:02;23.23;;;8.55;;
43160;SDS011;40968;52.342;5.528;2022-11-20T04:51:28;32.95;;;9.82;;
43160;SDS011;40968;52.342;5.528;2022-11-20T04:53:55;28.02;;;9.52;;
43160;SDS011;40968;52.342;5.528;2022-11-20T04:56:22;26.73;;;7.50;;
43160;SDS011;40968;52.342;5.528;2022-11-20T04:58:50;29.58;;;9.82;;
43160;SDS011;40968;52.342;5.528;2022-11-20T05:01:17;27.20;;;9.32;;
43160;SDS011;40968;52.342;5.528;2022-11-20T05:03:45;19.88;;;7.90;;
43160;SDS011;40968;52.342;5.528;2022-11-20T05:06:13;29.88;;;10.73;;
43160;SDS011;40968;52.342;5.528;2022-11-20T05:08:41;32.72;;;10.18;;
43160;SDS011;40968;52.342;5.528;2022-11-20T05:11:08;30.70;;;9.40;;
43160;SDS011;40968;52.342;5.528;2022-11-20T05:13:36;27.27;;;9.23;;
43160;SDS011;40968;52.342;5.528;2022-11-20T05:16:05;23.15;;;9.32;;
43160;SDS011;40968;52.342;5.528;2022-11-20T05:18:33;32.35;;;10.57;;
43160;SDS011;40968;52.342;5.528;2022-11-20T05:21:00;27.80;;;10.23;;
43160;SDS011;40968;52.342;5.528;2022-11-20T05:23:27;29.52;;;9.57;;
43160;SDS011;40968;52.342;5.528;2022-11-20T05:25:55;26.40;;;9.13;;
43160;SDS011;40968;52.342;5.528;2022-11-20T05:28:23;26.88;;;9.60;;
43160;SDS011;40968;52.342;5.528;2022-11-20T05:30:50;27.13;;;9.63;;
43160;SDS011;40968;52.342;5.528;2022-11-20T05:33:18;30.75;;;8.88;;
43160;SDS011;40968;52.342;5.528;2022-11-20T05:35:45;22.35;;;9.98;;
43160;SDS011;40968;52.342;5.528;2022-11-20T05:38:13;23.35;;;9.65;;
43160;SDS011;40968;52.342;5.528;2022-11-20T05:40:40;34.85;;;9.00;;
43160;SDS011;40968;52.342;5.528;2022-11-20T05:43:06;24.92;;;9.32;;
43160;SDS011;40968;52.342;5.528;2022-11-20T05:45:33;25.65;;;8.88;;
43160;SDS011;40968;52.342;5.528;2022-11-20T05:48:00;28.00;;;9.35;;
43160;SDS011;40968;52.342;5.528;2022-11-20T05:50:28;28.25;;;10.93;;
43160;SDS011;40968;52.342;5.528;2022-11-20T05:52:55;30.25;;;11.30;;
43160;SDS011;40968;52.342;5.528;2022-11-20T05:55:24;25.20;;;9.15;;
43160;SDS011;40968;52.342;5.528;2022-11-20T05:57:51;29.70;;;10.32;;
43160;SDS011;40968;52.342;5.528;2022-11-20T06:00:18;36.50;;;12.30;;
43160;SDS011;40968;52.342;5.528;2022-11-20T06:02:45;33.25;;;11.18;;
43160;SDS011;40968;52.342;5.528;2022-11-20T06:05:12;33.25;;;11.52;;
43160;SDS011;40968;52.342;5.528;2022-11-20T06:07:40;39.92;;;12.63;;
43160;SDS011;40968;52.342;5.528;2022-11-20T06:10:07;35.22;;;11.27;;
43160;SDS011;40968;52.342;5.528;2022-11-20T06:12:34;41.60;;;12.35;;
43160;SDS011;40968;52.342;5.528;2022-11-20T06:15:01;31.58;;;11.23;;
43160;SDS011;40968;52.342;5.528;2022-11-20T06:17:27;41.60;;;13.40;;
43160;SDS011;40968;52.342;5.528;2022-11-20T06:19:54;36.15;;;11.63;;
43160;SDS011;40968;52.342;5.528;2022-11-20T06:22:21;30.95;;;11.63;;
43160;SDS011;40968;52.342;5.528;2022-11-20T06:24:49;42.50;;;14.10;;
43160;SDS011;40968;52.342;5.528;2022-11-20T06:27:16;44.83;;;10.90;;
43160;SDS011;40968;52.342;5.528;2022-11-20T06:29:42;39.10;;;11.65;;
43160;SDS011;40968;52.342;5.528;2022-11-20T06:32:09;33.90;;;12.15;;
43160;SDS011;40968;52.342;5.528;2022-11-20T06:34:36;29.95;;;11.73;;
43160;SDS011;40968;52.342;5.528;2022-11-20T06:37:02;35.03;;;11.75;;
43160;SDS011;40968;52.342;5.528;2022-11-20T06:39:29;39.00;;;11.60;;
43160;SDS011;40968;52.342;5.528;2022-11-20T06:41:57;36.15;;;12.15;;
43160;SDS011;40968;52.342;5.528;2022-11-20T06:44:24;29.55;;;10.20;;
43160;SDS011;40968;52.342;5.528;2022-11-20T06:46:50;30.55;;;10.80;;
43160;SDS011;40968;52.342;5.528;2022-11-20T06:49:17;32.47;;;11.60;;
43160;SDS011;40968;52.342;5.528;2022-11-20T06:51:44;32.97;;;11.98;;
43160;SDS011;40968;52.342;5.528;2022-11-20T06:54:10;27.98;;;9.88;;
43160;SDS011;40968;52.342;5.528;2022-11-20T06:56:37;34.60;;;11.93;;
43160;SDS011;40968;52.342;5.528;2022-11-20T06:59:05;33.83;;;11.77;;
43160;SDS011;40968;52.342;5.528;2022-11-20T07:01:33;36.42;;;11.77;;
43160;SDS011;40968;52.342;5.528;2022-11-20T07:04:00;29.55;;;11.40;;
43160;SDS011;40968;52.342;5.528;2022-11-20T07:06:27;36.50;;;11.57;;
43160;SDS011;40968;52.342;5.528;2022-11-20T07:08:54;38.17;;;12.77;;
43160;SDS011;40968;52.342;5.528;2022-11-20T07:11:20;37.85;;;13.13;;
43160;SDS011;40968;52.342;5.528;2022-11-20T07:13:47;35.38;;;11.23;;
43160;SDS011;40968;52.342;5.528;2022-11-20T07:16:15;38.80;;;13.07;;
43160;SDS011;40968;52.342;5.528;2022-11-20T07:18:42;37.67;;;11.93;;
43160;SDS011;40968;52.342;5.528;2022-11-20T07:21:09;35.38;;;12.15;;
43160;SDS011;40968;52.342;5.528;2022-11-20T07:23:37;36.67;;;13.65;;
43160;SDS011;40968;52.342;5.528;2022-11-20T07:26:04;39.85;;;12.80;;
43160;SDS011;40968;52.342;5.528;2022-11-20T07:28:31;40.20;;;14.27;;
43160;SDS011;40968;52.342;5.528;2022-11-20T07:30:58;38.00;;;12.18;;
43160;SDS011;40968;52.342;5.528;2022-11-20T07:33:26;34.92;;;12.25;;
43160;SDS011;40968;52.342;5.528;2022-11-20T07:35:53;41.88;;;12.77;;
43160;SDS011;40968;52.342;5.528;2022-11-20T07:38:19;36.53;;;12.20;;
43160;SDS011;40968;52.342;5.528;2022-11-20T07:40:46;42.88;;;12.75;;
43160;SDS011;40968;52.342;5.528;2022-11-20T07:43:13;40.90;;;12.57;;
43160;SDS011;40968;52.342;5.528;2022-11-20T07:45:40;39.13;;;13.02;;
43160;SDS011;40968;52.342;5.528;2022-11-20T07:48:07;35.22;;;12.80;;
43160;SDS011;40968;52.342;5.528;2022-11-20T07:50:35;37.85;;;12.68;;
43160;SDS011;40968;52.342;5.528;2022-11-20T07:53:02;34.08;;;13.65;;
43160;SDS011;40968;52.342;5.528;2022-11-20T07:55:29;39.00;;;14.05;;
43160;SDS011;40968;52.342;5.528;2022-11-20T07:57:56;49.30;;;15.88;;
43160;SDS011;40968;52.342;5.528;2022-11-20T08:00:23;42.92;;;14.75;;
43160;SDS011;40968;52.342;5.528;2022-11-20T08:02:51;43.10;;;13.15;;
43160;SDS011;40968;52.342;5.528;2022-11-20T08:05:18;40.95;;;15.10;;
43160;SDS011;40968;52.342;5.528;2022-11-20T08:07:46;44.00;;;15.25;;
43160;SDS011;40968;52.342;5.528;2022-11-20T08:10:13;48.00;;;13.07;;
43160;SDS011;40968;52.342;5.528;2022-11-20T08:12:44;40.72;;;13.95;;
43160;SDS011;40968;52.342;5.528;2022-11-20T08:15:29;36.15;;;12.45;;
43160;SDS011;40968;52.342;5.528;2022-11-20T08:18:00;41.33;;;14.18;;
43160;SDS011;40968;52.342;5.528;2022-11-20T08:20:28;45.35;;;15.25;;
43160;SDS011;40968;52.342;5.528;2022-11-20T08:22:59;41.20;;;12.88;;
43160;SDS011;40968;52.342;5.528;2022-11-20T08:25:26;44.28;;;14.48;;
43160;SDS011;40968;52.342;5.528;2022-11-20T08:27:54;40.83;;;13.88;;
43160;SDS011;40968;52.342;5.528;2022-11-20T08:30:23;45.40;;;15.23;;
43160;SDS011;40968;52.342;5.528;2022-11-20T08:32:50;46.28;;;13.82;;
43160;SDS011;40968;52.342;5.528;2022-11-20T08:35:16;39.80;;;13.13;;
43160;SDS011;40968;52.342;5.528;2022-11-20T08:37:45;37.80;;;14.82;;
43160;SDS011;40968;52.342;5.528;2022-11-20T08:40:13;36.17;;;13.30;;
43160;SDS011;40968;52.342;5.528;2022-11-20T08:42:45;39.72;;;13.77;;
43160;SDS011;40968;52.342;5.528;2022-11-20T08:45:12;46.42;;;15.05;;
43160;SDS011;40968;52.342;5.528;2022-11-20T08:47:40;43.38;;;14.02;;
43160;SDS011;40968;52.342;5.528;2022-11-20T08:50:07;54.08;;;15.20;;
43160;SDS011;40968;52.342;5.528;2022-11-20T08:52:34;47.30;;;16.23;;
43160;SDS011;40968;52.342;5.528;2022-11-20T08:55:01;50.75;;;14.23;;
43160;SDS011;40968;52.342;5.528;2022-11-20T08:57:29;38.50;;;14.38;;
43160;SDS011;40968;52.342;5.528;2022-11-20T08:59:57;45.28;;;15.15;;
43160;SDS011;40968;52.342;5.528;2022-11-20T09:02:24;47.28;;;15.68;;
43160;SDS011;40968;52.342;5.528;2022-11-20T09:04:51;51.10;;;15.60;;
43160;SDS011;40968;52.342;5.528;2022-11-20T09:07:18;48.92;;;16.08;;
43160;SDS011;40968;52.342;5.528;2022-11-20T09:09:45;50.08;;;15.73;;
43160;SDS011;40968;52.342;5.528;2022-11-20T09:12:11;47.97;;;15.57;;
43160;SDS011;40968;52.342;5.528;2022-11-20T09:14:40;52.00;;;15.85;;
43160;SDS011;40968;52.342;5.528;2022-11-20T09:17:06;46.40;;;15.63;;
43160;SDS011;40968;52.342;5.528;2022-11-20T09:19:33;41.35;;;14.75;;
43160;SDS011;40968;52.342;5.528;2022-11-20T09:22:00;45.85;;;15.23;;
43160;SDS011;40968;52.342;5.528;2022-11-20T09:24:27;38.13;;;14.48;;
43160;SDS011;40968;52.342;5.528;2022-11-20T09:26:54;49.85;;;16.30;;
43160;SDS011;40968;52.342;5.528;2022-11-20T09:29:20;52.20;;;15.93;;
43160;SDS011;40968;52.342;5.528;2022-11-20T09:31:48;40.70;;;15.18;;
43160;SDS011;40968;52.342;5.528;2022-11-20T09:34:15;50.67;;;16.45;;
43160;SDS011;40968;52.342;5.528;2022-11-20T09:36:42;42.97;;;15.65;;
43160;SDS011;40968;52.342;5.528;2022-11-20T09:39:08;44.95;;;14.63;;
43160;SDS011;40968;52.342;5.528;2022-11-20T09:41:39;35.05;;;13.05;;
43160;SDS011;40968;52.342;5.528;2022-11-20T09:44:24;43.17;;;15.20;;
43160;SDS011;40968;52.342;5.528;2022-11-20T09:47:02;46.00;;;14.68;;
43160;SDS011;40968;52.342;5.528;2022-11-20T09:49:36;50.13;;;16.73;;
43160;SDS011;40968;52.342;5.528;2022-11-20T09:52:20;46.53;;;15.38;;
43160;SDS011;40968;52.342;5.528;2022-11-20T09:54:54;46.80;;;15.30;;
43160;SDS011;40968;52.342;5.528;2022-11-20T09:57:21;48.42;;;15.48;;
43160;SDS011;40968;52.342;5.528;2022-11-20T09:59:52;47.72;;;15.27;;
43160;SDS011;40968;52.342;5.528;2022-11-20T10:02:25;45.55;;;16.25;;
43160;SDS011;40968;52.342;5.528;2022-11-20T10:04:56;53.13;;;16.98;;
43160;SDS011;40968;52.342;5.528;2022-11-20T10:07:29;45.28;;;14.27;;
43160;SDS011;40968;52.342;5.528;2022-11-20T10:10:00;40.58;;;15.02;;
43160;SDS011;40968;52.342;5.528;2022-11-20T10:12:29;45.90;;;16.30;;
43160;SDS011;40968;52.342;5.528;2022-11-20T10:15:10;48.58;;;17.45;;
43160;SDS011;40968;52.342;5.528;2022-11-20T10:17:58;43.60;;;14.30;;
43160;SDS011;40968;52.342;5.528;2022-11-20T10:20:37;50.13;;;16.05;;
43160;SDS011;40968;52.342;5.528;2022-11-20T10:23:21;45.85;;;16.98;;
43160;SDS011;40968;52.342;5.528;2022-11-20T10:25:59;44.83;;;15.45;;
43160;SDS011;40968;52.342;5.528;2022-11-20T10:28:44;58.25;;;17.27;;
43160;SDS011;40968;52.342;5.528;2022-11-20T10:31:25;48.08;;;16.48;;
43160;SDS011;40968;52.342;5.528;2022-11-20T10:33:57;62.85;;;16.88;;
43160;SDS011;40968;52.342;5.528;2022-11-20T10:36:30;54.67;;;16.58;;
43160;SDS011;40968;52.342;5.528;2022-11-20T10:39:06;53.67;;;17.52;;
43160;SDS011;40968;52.342;5.528;2022-11-20T10:41:41;53.13;;;16.25;;
43160;SDS011;40968;52.342;5.528;2022-11-20T10:44:09;62.92;;;16.80;;
43160;SDS011;40968;52.342;5.528;2022-11-20T10:47:00;54.47;;;17.67;;
43160;SDS011;40968;52.342;5.528;2022-11-20T10:49:28;43.53;;;17.88;;
43160;SDS011;40968;52.342;5.528;2022-11-20T10:51:59;57.78;;;18.52;;
43160;SDS011;40968;52.342;5.528;2022-11-20T10:54:35;56.33;;;18.33;;
43160;SDS011;40968;52.342;5.528;2022-11-20T10:57:11;56.25;;;18.90;;
43160;SDS011;40968;52.342;5.528;2022-11-20T10:59:51;50.00;;;18.60;;
43160;SDS011;40968;52.342;5.528;2022-11-20T11:02:31;65.80;;;18.63;;
43160;SDS011;40968;52.342;5.528;2022-11-20T11:05:01;57.20;;;17.08;;
43160;SDS011;40968;52.342;5.528;2022-11-20T11:07:38;48.90;;;18.67;;
43160;SDS011;40968;52.342;5.528;2022-11-20T11:10:12;57.25;;;19.80;;
43160;SDS011;40968;52.342;5.528;2022-11-20T11:12:43;60.30;;;19.42;;
43160;SDS011;40968;52.342;5.528;2022-11-20T11:15:12;58.42;;;18.95;;
43160;SDS011;40968;52.342;5.528;2022-11-20T11:17:50;56.67;;;19.33;;
43160;SDS011;40968;52.342;5.528;2022-11-20T11:20:18;55.78;;;18.77;;
43160;SDS011;40968;52.342;5.528;2022-11-20T11:22:48;57.30;;;18.70;;
43160;SDS011;40968;52.342;5.528;2022-11-20T11:25:20;59.53;;;19.55;;
43160;SDS011;40968;52.342;5.528;2022-11-20T11:27:49;64.70;;;20.50;;
43160;SDS011;40968;52.342;5.528;2022-11-20T11:30:17;68.72;;;21.60;;
43160;SDS011;40968;52.342;5.528;2022-11-20T11:32:45;61.70;;;21.17;;
43160;SDS011;40968;52.342;5.528;2022-11-20T11:35:21;63.58;;;20.33;;
43160;SDS011;40968;52.342;5.528;2022-11-20T11:37:50;72.28;;;22.27;;
43160;SDS011;40968;52.342;5.528;2022-11-20T11:40:20;54.08;;;20.27;;
43160;SDS011;40968;52.342;5.528;2022-11-20T11:42:53;76.53;;;23.08;;
43160;SDS011;40968;52.342;5.528;2022-11-20T11:45:22;74.25;;;23.40;;
43160;SDS011;40968;52.342;5.528;2022-11-20T11:47:48;66.78;;;21.88;;
43160;SDS011;40968;52.342;5.528;2022-11-20T11:50:19;56.00;;;21.45;;
43160;SDS011;40968;52.342;5.528;2022-11-20T11:52:51;67.53;;;22.25;;
43160;SDS011;40968;52.342;5.528;2022-11-20T11:55:28;64.15;;;23.15;;
43160;SDS011;40968;52.342;5.528;2022-11-20T11:58:02;60.28;;;21.23;;
43160;SDS011;40968;52.342;5.528;2022-11-20T12:00:35;65.22;;;22.30;;
43160;SDS011;40968;52.342;5.528;2022-11-20T12:03:08;68.43;;;20.75;;
43160;SDS011;40968;52.342;5.528;2022-11-20T12:05:42;65.68;;;20.88;;
43160;SDS011;40968;52.342;5.528;2022-11-20T12:08:13;60.38;;;19.45;;
43160;SDS011;40968;52.342;5.528;2022-11-20T12:10:45;63.63;;;21.33;;
43160;SDS011;40968;52.342;5.528;2022-11-20T12:13:21;68.18;;;21.48;;
43160;SDS011;40968;52.342;5.528;2022-11-20T12:16:07;65.13;;;20.50;;
43160;SDS011;40968;52.342;5.528;2022-11-20T12:18:38;72.18;;;21.85;;
43160;SDS011;40968;52.342;5.528;2022-11-20T12:21:11;69.13;;;22.58;;
43160;SDS011;40968;52.342;5.528;2022-11-20T12:23:48;69.13;;;21.65;;
43160;SDS011;40968;52.342;5.528;2022-11-20T12:26:31;67.47;;;21.77;;
43160;SDS011;40968;52.342;5.528;2022-11-20T12:29:09;68.97;;;22.08;;
43160;SDS011;40968;52.342;5.528;2022-11-20T12:31:57;62.60;;;22.05;;
43160;SDS011;40968;52.342;5.528;2022-11-20T12:34:42;69.63;;;20.05;;
43160;SDS011;40968;52.342;5.528;2022-11-20T12:37:21;67.68;;;23.10;;
43160;SDS011;40968;52.342;5.528;2022-11-20T12:39:57;78.60;;;23.58;;
43160;SDS011;40968;52.342;5.528;2022-11-20T12:42:31;63.90;;;21.05;;
43160;SDS011;40968;52.342;5.528;2022-11-20T12:48:36;74.25;;;24.13;;
43160;SDS011;40968;52.342;5.528;2022-11-20T12:51:20;64.28;;;22.08;;
43160;SDS011;40968;52.342;5.528;2022-11-20T12:54:09;69.90;;;22.83;;
43160;SDS011;40968;52.342;5.528;2022-11-20T12:56:58;69.32;;;22.23;;
43160;SDS011;40968;52.342;5.528;2022-11-20T12:59:38;69.53;;;21.45;;
43160;SDS011;40968;52.342;5.528;2022-11-20T13:02:23;69.18;;;22.40;;
43160;SDS011;40968;52.342;5.528;2022-11-20T13:05:02;70.00;;;23.13;;
43160;SDS011;40968;52.342;5.528;2022-11-20T13:07:39;75.97;;;22.58;;
43160;SDS011;40968;52.342;5.528;2022-11-20T13:10:12;64.55;;;22.98;;
43160;SDS011;40968;52.342;5.528;2022-11-20T13:12:44;65.03;;;22.70;;
43160;SDS011;40968;52.342;5.528;2022-11-20T13:15:17;76.65;;;23.55;;
43160;SDS011;40968;52.342;5.528;2022-11-20T13:17:54;77.35;;;24.77;;
43160;SDS011;40968;52.342;5.528;2022-11-20T13:20:24;68.63;;;22.25;;
43160;SDS011;40968;52.342;5.528;2022-11-20T13:22:51;66.35;;;21.20;;
43160;SDS011;40968;52.342;5.528;2022-11-20T13:25:24;71.38;;;21.60;;
43160;SDS011;40968;52.342;5.528;2022-11-20T13:27:52;68.40;;;22.50;;
43160;SDS011;40968;52.342;5.528;2022-11-20T13:30:20;72.55;;;22.50;;
43160;SDS011;40968;52.342;5.528;2022-11-20T13:32:48;60.67;;;21.10;;
43160;SDS011;40968;52.342;5.528;2022-11-20T13:35:23;61.75;;;19.55;;
43160;SDS011;40968;52.342;5.528;2022-11-20T13:37:59;67.90;;;21.38;;
43160;SDS011;40968;52.342;5.528;2022-11-20T13:40:30;66.30;;;21.88;;
43160;SDS011;40968;52.342;5.528;2022-11-20T13:43:01;67.47;;;21.77;;
43160;SDS011;40968;52.342;5.528;2022-11-20T13:45:36;75.18;;;20.27;;
43160;SDS011;40968;52.342;5.528;2022-11-20T13:48:03;62.13;;;20.30;;
43160;SDS011;40968;52.342;5.528;2022-11-20T13:50:46;67.30;;;20.33;;
43160;SDS011;40968;52.342;5.528;2022-11-20T13:53:27;58.53;;;19.40;;
43160;SDS011;40968;52.342;5.528;2022-11-20T13:56:07;61.35;;;19.73;;
43160;SDS011;40968;52.342;5.528;2022-11-20T13:58:44;58.63;;;20.05;;
43160;SDS011;40968;52.342;5.528;2022-11-20T14:01:23;63.20;;;18.98;;
43160;SDS011;40968;52.342;5.528;2022-11-20T14:03:51;54.58;;;18.38;;
43160;SDS011;40968;52.342;5.528;2022-11-20T14:06:21;56.60;;;18.50;;
43160;SDS011;40968;52.342;5.528;2022-11-20T14:08:52;56.95;;;17.83;;
43160;SDS011;40968;52.342;5.528;2022-11-20T14:11:21;65.20;;;19.98;;
43160;SDS011;40968;52.342;5.528;2022-11-20T14:13:54;66.90;;;21.33;;
43160;SDS011;40968;52.342;5.528;2022-11-20T14:16:23;66.10;;;20.38;;
43160;SDS011;40968;52.342;5.528;2022-11-20T14:18:51;60.38;;;20.38;;
43160;SDS011;40968;52.342;5.528;2022-11-20T14:21:21;56.67;;;20.00;;
43160;SDS011;40968;52.342;5.528;2022-11-20T14:23:51;62.80;;;20.45;;
43160;SDS011;40968;52.342;5.528;2022-11-20T14:26:20;62.25;;;20.27;;
43160;SDS011;40968;52.342;5.528;2022-11-20T14:28:47;58.85;;;22.52;;
43160;SDS011;40968;52.342;5.528;2022-11-20T14:31:18;64.47;;;20.95;;
43160;SDS011;40968;52.342;5.528;2022-11-20T14:33:49;71.72;;;21.15;;
43160;SDS011;40968;52.342;5.528;2022-11-20T14:36:16;67.20;;;18.73;;
43160;SDS011;40968;52.342;5.528;2022-11-20T14:38:44;62.78;;;20.67;;
43160;SDS011;40968;52.342;5.528;2022-11-20T14:41:16;68.40;;;21.55;;
43160;SDS011;40968;52.342;5.528;2022-11-20T14:43:46;74.07;;;23.60;;
43160;SDS011;40968;52.342;5.528;2022-11-20T14:46:16;63.75;;;20.38;;
43160;SDS011;40968;52.342;5.528;2022-11-20T14:48:45;67.90;;;23.67;;
43160;SDS011;40968;52.342;5.528;2022-11-20T14:51:22;64.93;;;21.33;;
43160;SDS011;40968;52.342;5.528;2022-11-20T14:54:07;70.47;;;21.27;;